createdAt,value
2022-11-20T00:01:56.574Z,27.70
2022-11-20T00:04:23.954Z,27.37
2022-11-20T00:06:51.420Z,25.67
2022-11-20T00:09:19.525Z,26.10
2022-11-20T00:11:48.152Z,28.60
2022-11-20T00:14:15.472Z,27.23
2022-11-20T00:16:43.201Z,26.23
2022-11-20T00:19:11.721Z,27.23
2022-11-20T00:21:39.787Z,25.80
2022-11-20T00:24:11.573Z,29.20
2022-11-20T00:26:39.538Z,23.73
2022-11-20T00:29:11.354Z,26.20
2022-11-20T00:31:38.821Z,28.90
2022-11-20T00:34:06.265Z,23.30
2022-11-20T00:36:36.458Z,28.83
2022-11-20T00:39:04.093Z,31.60
2022-11-20T00:41:32.291Z,24.37
2022-11-20T00:43:59.737Z,26.77
2022-11-20T00:46:28.727Z,30.53
2022-11-20T00:48:57.258Z,25.93
2022-11-20T00:51:26.031Z,26.17
2022-11-20T00:53:56.620Z,26.17
2022-11-20T00:56:24.174Z,26.30
2022-11-20T00:58:52.450Z,28.90
2022-11-20T01:01:22.624Z,27.10
2022-11-20T01:03:51.296Z,29.17
2022-11-20T01:06:24.504Z,27.67
2022-11-20T01:08:52.961Z,24.17
2022-11-20T01:11:23.491Z,27.30
2022-11-20T01:13:54.311Z,27.00
2022-11-20T01:16:23.203Z,26.10
2022-11-20T01:18:51.575Z,28.20
2022-11-20T01:21:20.574Z,27.63
2022-11-20T01:23:48.669Z,24.93
2022-11-20T01:26:35.053Z,29.37
2022-11-20T01:29:03.218Z,27.40
2022-11-20T01:31:32.391Z,27.87
2022-11-20T01:34:01.037Z,33.23
2022-11-20T01:36:29.769Z,29.27
2022-11-20T01:38:58.648Z,25.13
2022-11-20T01:41:45.792Z,25.73
2022-11-20T01:44:15.976Z,27.57
2022-11-20T01:46:57.616Z,27.13
2022-11-20T01:49:34.311Z,27.10
2022-11-20T01:52:04.752Z,27.80
2022-11-20T01:54:37.338Z,28.17
2022-11-20T01:57:07.227Z,27.30
2022-11-20T01:59:35.440Z,27.00
2022-11-20T02:02:04.908Z,27.63
2022-11-20T02:04:32.388Z,32.83
2022-11-20T02:07:01.891Z,29.63
2022-11-20T02:09:29.862Z,28.47
2022-11-20T02:11:57.714Z,29.00
2022-11-20T02:14:25.357Z,32.80
2022-11-20T02:16:53.270Z,29.10
2022-11-20T02:19:31.763Z,33.70
2022-11-20T02:22:17.916Z,28.90
2022-11-20T02:24:46.824Z,31.70
2022-11-20T02:27:16.269Z,28.90
2022-11-20T02:29:59.361Z,31.67
2022-11-20T02:32:27.827Z,35.30
2022-11-20T02:34:55.314Z,29.23
2022-11-20T02:37:23.221Z,27.53
2022-11-20T02:39:51.703Z,27.07
2022-11-20T02:42:21.282Z,34.80
2022-11-20T02:44:48.640Z,27.57
2022-11-20T02:47:16.227Z,30.50
2022-11-20T02:49:43.881Z,29.60
2022-11-20T02:52:11.346Z,24.90
2022-11-20T02:54:39.914Z,31.77
2022-11-20T02:57:07.427Z,28.17
2022-11-20T02:59:34.976Z,33.70
2022-11-20T03:02:02.585Z,29.60
2022-11-20T03:04:30.048Z,30.17
2022-11-20T03:07:00.103Z,32.20
2022-11-20T03:09:27.663Z,28.77
2022-11-20T03:11:55.157Z,32.40
2022-11-20T03:14:22.651Z,24.33
2022-11-20T03:16:50.177Z,26.30
2022-11-20T03:19:18.371Z,25.87
2022-11-20T03:21:45.716Z,27.90
2022-11-20T03:24:13.036Z,37.20
2022-11-20T03:26:40.685Z,26.30
2022-11-20T03:29:08.216Z,28.90
2022-11-20T03:31:36.751Z,31.67
2022-11-20T03:34:04.455Z,28.03
2022-11-20T03:36:32.017Z,27.27
2022-11-20T03:38:59.447Z,31.53
2022-11-20T03:41:28.321Z,27.20
2022-11-20T03:43:57.689Z,29.50
2022-11-20T03:46:25.350Z,28.43
2022-11-20T03:48:52.970Z,32.70
2022-11-20T03:51:24.561Z,30.77
2022-11-20T03:53:52.793Z,32.57
2022-11-20T03:56:21.173Z,29.37
2022-11-20T03:58:48.891Z,35.33
2022-11-20T04:01:17.822Z,33.43
2022-11-20T04:03:46.083Z,28.00
2022-11-20T04:06:14.726Z,35.17
2022-11-20T04:08:42.549Z,35.33
2022-11-20T04:11:10.819Z,30.00
2022-11-20T04:13:38.175Z,29.67
2022-11-20T04:16:06.214Z,31.97
2022-11-20T04:18:33.564Z,33.97
2022-11-20T04:21:00.820Z,32.00
2022-11-20T04:23:29.079Z,29.30
2022-11-20T04:26:04.053Z,31.43
2022-11-20T04:28:31.234Z,34.73
2022-11-20T04:31:09.884Z,33.30
2022-11-20T04:33:37.931Z,34.53
2022-11-20T04:36:06.600Z,28.00
2022-11-20T04:38:34.079Z,29.33
2022-11-20T04:41:02.068Z,30.90
2022-11-20T04:43:29.648Z,31.27
2022-11-20T04:45:57.554Z,31.63
2022-11-20T04:48:24.902Z,30.87
2022-11-20T04:50:53.568Z,34.07
2022-11-20T04:53:21.391Z,30.20
2022-11-20T04:55:49.865Z,28.17
2022-11-20T04:58:19.014Z,29.77
2022-11-20T05:00:46.182Z,32.83
2022-11-20T05:03:14.217Z,29.53
2022-11-20T05:05:41.388Z,34.80
2022-11-20T05:08:08.766Z,28.23
2022-11-20T05:10:36.162Z,25.20
2022-11-20T05:13:04.348Z,34.07
2022-11-20T05:15:32.668Z,33.80
2022-11-20T05:18:00.177Z,26.93
2022-11-20T05:20:27.375Z,32.93
2022-11-20T05:22:57.787Z,25.43
2022-11-20T05:25:25.006Z,30.03
2022-11-20T05:27:52.188Z,34.67
2022-11-20T05:30:20.361Z,30.60
2022-11-20T05:32:47.540Z,35.77
2022-11-20T05:35:14.848Z,28.30
2022-11-20T05:37:42.016Z,34.17
2022-11-20T05:40:09.653Z,29.20
2022-11-20T05:42:38.053Z,29.83
2022-11-20T05:45:06.818Z,35.50
2022-11-20T05:47:35.932Z,35.33
2022-11-20T05:50:04.249Z,30.30
2022-11-20T05:52:31.608Z,36.37
2022-11-20T05:54:58.839Z,31.03
2022-11-20T05:57:26.033Z,33.57
2022-11-20T05:59:53.236Z,34.50
2022-11-20T06:02:20.439Z,38.23
2022-11-20T06:04:47.984Z,38.40
2022-11-20T06:07:15.206Z,35.87
2022-11-20T06:09:43.084Z,35.90
2022-11-20T06:12:10.310Z,39.40
2022-11-20T06:14:37.887Z,42.47
2022-11-20T06:17:06.040Z,39.03
2022-11-20T06:19:33.236Z,30.20
2022-11-20T06:22:00.416Z,29.90
2022-11-20T06:24:27.633Z,37.70
2022-11-20T06:26:55.817Z,43.10
2022-11-20T06:29:23.240Z,37.53
2022-11-20T06:31:50.613Z,43.33
2022-11-20T06:34:18.887Z,36.00
2022-11-20T06:36:46.074Z,39.50
2022-11-20T06:39:13.256Z,34.93
2022-11-20T06:41:40.919Z,33.37
2022-11-20T06:44:10.379Z,39.30
2022-11-20T06:46:37.594Z,32.60
2022-11-20T06:49:04.841Z,29.93
2022-11-20T06:51:32.003Z,38.17
2022-11-20T06:53:59.259Z,37.27
2022-11-20T06:56:26.417Z,37.80
2022-11-20T06:58:54.668Z,41.27
2022-11-20T07:01:21.930Z,36.27
2022-11-20T07:03:54.205Z,35.30
2022-11-20T07:06:22.273Z,37.70
2022-11-20T07:08:51.594Z,34.50
2022-11-20T07:11:18.807Z,42.00
2022-11-20T07:13:46.604Z,42.23
2022-11-20T07:16:13.795Z,43.70
2022-11-20T07:18:43.664Z,48.50
2022-11-20T07:21:13.468Z,40.30
2022-11-20T07:23:40.634Z,42.93
2022-11-20T07:26:08.652Z,39.40
2022-11-20T07:28:36.320Z,37.67
2022-11-20T07:31:03.967Z,38.30
2022-11-20T07:33:32.063Z,46.00
2022-11-20T07:36:01.124Z,35.30
2022-11-20T07:38:28.365Z,44.73
2022-11-20T07:40:56.710Z,43.53
2022-11-20T07:43:23.933Z,40.40
2022-11-20T07:45:51.308Z,45.23
2022-11-20T07:48:18.448Z,42.00
2022-11-20T07:50:46.714Z,45.10
2022-11-20T07:53:14.778Z,48.67
2022-11-20T07:55:41.968Z,37.93
2022-11-20T07:58:10.102Z,38.50
2022-11-20T08:00:37.317Z,44.27
2022-11-20T08:03:06.066Z,45.27
2022-11-20T08:05:33.615Z,51.23
2022-11-20T08:08:00.779Z,37.37
2022-11-20T08:10:28.104Z,44.30
2022-11-20T08:13:13.971Z,39.47
2022-11-20T08:15:41.633Z,37.83
2022-11-20T08:20:59.376Z,41.10
2022-11-20T08:23:26.764Z,36.80
2022-11-20T08:25:55.972Z,45.93
2022-11-20T08:28:24.520Z,44.00
2022-11-20T08:30:51.816Z,42.07
2022-11-20T08:33:19.475Z,40.10
2022-11-20T08:35:46.751Z,39.83
2022-11-20T08:38:13.958Z,33.13
2022-11-20T08:40:41.163Z,38.63
2022-11-20T08:43:08.388Z,35.90
2022-11-20T08:45:36.663Z,36.77
2022-11-20T08:48:04.696Z,41.80
2022-11-20T08:50:35.097Z,46.97
2022-11-20T08:53:05.752Z,42.30
2022-11-20T08:55:33.243Z,37.03
2022-11-20T08:58:04.806Z,50.80
2022-11-20T09:00:33.245Z,39.17
2022-11-20T09:03:01.795Z,38.87
2022-11-20T09:05:29.126Z,37.63
2022-11-20T09:07:59.906Z,37.40
2022-11-20T09:10:27.675Z,33.83
2022-11-20T09:12:56.074Z,37.70
2022-11-20T09:15:23.761Z,41.17
2022-11-20T09:17:59.327Z,39.53
2022-11-20T09:20:27.099Z,38.60
2022-11-20T09:22:54.325Z,34.50
2022-11-20T09:25:21.815Z,42.33
2022-11-20T09:27:49.007Z,37.47
2022-11-20T09:30:16.629Z,41.17
2022-11-20T09:32:44.275Z,36.80
2022-11-20T09:35:12.759Z,38.73
2022-11-20T09:37:39.899Z,39.10
2022-11-20T09:40:07.731Z,42.67
2022-11-20T09:42:49.280Z,37.87
2022-11-20T09:45:16.426Z,36.73
2022-11-20T09:47:47.756Z,42.80
2022-11-20T09:50:30.256Z,43.13
2022-11-20T09:53:13.222Z,39.47
2022-11-20T09:55:43.132Z,41.27
2022-11-20T09:58:30.317Z,40.27
2022-11-20T10:01:00.836Z,36.30
2022-11-20T10:03:54.599Z,42.33
2022-11-20T10:06:25.388Z,38.13
2022-11-20T10:09:06.517Z,40.13
2022-11-20T10:11:52.612Z,39.20
2022-11-20T10:14:40.678Z,38.60
2022-11-20T10:17:22.733Z,50.73
2022-11-20T10:20:04.196Z,38.27
2022-11-20T10:23:07.086Z,38.23
2022-11-20T10:25:39.903Z,40.87
2022-11-20T10:28:12.172Z,43.80
2022-11-20T10:30:41.968Z,43.90
2022-11-20T10:33:23.438Z,47.50
2022-11-20T10:35:53.761Z,40.97
2022-11-20T10:38:36.468Z,38.37
2022-11-20T10:41:23.441Z,38.57
2022-11-20T10:43:52.377Z,39.67
2022-11-20T10:46:23.351Z,35.23
2022-11-20T10:48:51.236Z,33.90
2022-11-20T10:51:30.690Z,37.07
2022-11-20T10:54:08.785Z,38.77
2022-11-20T10:56:41.533Z,32.23
2022-11-20T10:59:09.479Z,43.90
2022-11-20T11:01:42.546Z,40.57
2022-11-20T11:04:34.233Z,38.63
2022-11-20T11:07:12.446Z,40.63
2022-11-20T11:09:46.415Z,44.70
2022-11-20T11:12:13.824Z,37.57
2022-11-20T11:14:45.001Z,37.83
2022-11-20T11:17:31.381Z,46.97
2022-11-20T11:20:17.156Z,45.30
2022-11-20T11:22:46.162Z,44.80
2022-11-20T11:25:21.007Z,43.37
2022-11-20T11:27:48.988Z,47.37
2022-11-20T11:30:18.277Z,39.53
2022-11-20T11:32:46.175Z,44.60
2022-11-20T11:35:28.082Z,44.10
2022-11-20T11:37:58.010Z,39.60
2022-11-20T11:40:27.915Z,40.13
2022-11-20T11:42:59.127Z,38.60
2022-11-20T11:45:26.380Z,46.80
2022-11-20T11:47:56.488Z,41.90
2022-11-20T11:50:27.356Z,35.70
2022-11-20T11:53:16.244Z,41.93
2022-11-20T11:55:48.668Z,47.77
2022-11-20T11:58:24.552Z,41.90
2022-11-20T12:01:10.632Z,40.20
2022-11-20T12:03:42.629Z,45.13
2022-11-20T12:06:14.429Z,38.07
2022-11-20T12:08:52.136Z,35.03
2022-11-20T12:11:34.639Z,34.70
2022-11-20T12:14:05.273Z,38.43
2022-11-20T12:16:36.984Z,38.60
2022-11-20T12:19:08.610Z,35.87
2022-11-20T12:21:44.808Z,33.27
2022-11-20T12:24:21.586Z,38.47
2022-11-20T12:26:51.831Z,40.30
2022-11-20T12:29:33.008Z,35.03
2022-11-20T12:32:08.707Z,30.83
2022-11-20T12:34:54.759Z,37.53
2022-11-20T12:37:30.300Z,33.73
2022-11-20T12:40:01.740Z,34.97
2022-11-20T12:43:03.128Z,33.17
2022-11-20T12:45:36.277Z,31.80
2022-11-20T12:48:06.300Z,29.00
2022-11-20T12:51:00.674Z,34.20
2022-11-20T12:53:30.037Z,35.90
2022-11-20T12:56:03.545Z,33.47
2022-11-20T12:58:33.535Z,35.30
2022-11-20T13:01:41.488Z,40.60
2022-11-20T13:04:29.928Z,39.67
2022-11-20T13:06:58.650Z,34.40
2022-11-20T13:09:26.092Z,39.17
2022-11-20T13:11:59.238Z,38.93
2022-11-20T13:14:35.634Z,38.83
2022-11-20T13:17:15.003Z,42.23
2022-11-20T13:19:42.526Z,38.60
2022-11-20T13:22:10.307Z,30.30
2022-11-20T13:24:37.570Z,34.60
2022-11-20T13:27:14.078Z,33.73
2022-11-20T13:29:44.153Z,30.30
2022-11-20T13:32:21.889Z,35.03
2022-11-20T13:34:56.558Z,29.07
2022-11-20T13:37:31.433Z,34.27
2022-11-20T13:40:13.740Z,32.83
2022-11-20T13:42:43.977Z,25.27
2022-11-20T13:45:13.615Z,28.47
2022-11-20T13:47:48.734Z,29.00
2022-11-20T13:50:16.184Z,31.60
2022-11-20T13:52:49.454Z,32.13
2022-11-20T13:55:28.359Z,26.83
2022-11-20T13:58:01.054Z,29.40
2022-11-20T14:00:28.582Z,28.00
2022-11-20T14:03:08.023Z,28.10
2022-11-20T14:05:40.479Z,35.00
2022-11-20T14:08:12.904Z,33.03
2022-11-20T14:10:40.440Z,30.13
2022-11-20T14:13:20.663Z,28.40
2022-11-20T14:15:49.418Z,32.27
2022-11-20T14:18:21.179Z,29.73
2022-11-20T14:20:48.592Z,33.77
2022-11-20T14:23:29.524Z,30.50
2022-11-20T14:25:57.390Z,25.40
2022-11-20T14:28:28.535Z,30.40
2022-11-20T14:30:56.511Z,27.70
2022-11-20T14:33:25.829Z,25.97
2022-11-20T14:35:57.584Z,26.53
2022-11-20T14:38:29.775Z,25.33
2022-11-20T14:41:07.472Z,25.00
2022-11-20T14:43:38.514Z,28.93
2022-11-20T14:46:09.957Z,28.40
2022-11-20T14:48:40.611Z,26.30
2022-11-20T14:51:10.615Z,24.50
2022-11-20T14:53:37.993Z,29.80
2022-11-20T14:56:05.263Z,29.50
2022-11-20T14:58:34.306Z,26.17
2022-11-20T15:01:03.474Z,26.33
2022-11-20T15:03:34.924Z,26.13
2022-11-20T15:06:02.505Z,25.10
2022-11-20T15:08:29.714Z,29.27
2022-11-20T15:10:57.105Z,30.40
2022-11-20T15:13:24.267Z,28.83
2022-11-20T15:15:53.838Z,24.40
2022-11-20T15:18:33.726Z,24.50
2022-11-20T15:21:05.221Z,25.77
2022-11-20T15:23:32.675Z,25.90
2022-11-20T15:25:59.970Z,28.40
2022-11-20T15:28:35.298Z,28.00
2022-11-20T15:31:04.922Z,24.67
2022-11-20T15:33:32.429Z,29.63
2022-11-20T15:35:59.717Z,25.13
2022-11-20T15:38:26.882Z,28.57
2022-11-20T15:40:54.040Z,25.60
2022-11-20T15:43:21.215Z,25.90
2022-11-20T15:45:53.458Z,28.33
2022-11-20T15:48:27.682Z,26.00
2022-11-20T15:51:16.255Z,31.40
2022-11-20T15:53:43.501Z,27.23
2022-11-20T15:56:12.665Z,33.87
2022-11-20T15:58:39.992Z,32.27
2022-11-20T16:01:11.261Z,29.83
2022-11-20T16:03:38.426Z,25.97
2022-11-20T16:06:05.709Z,28.77
2022-11-20T16:08:32.878Z,26.77
2022-11-20T16:11:00.029Z,25.60
2022-11-20T16:13:46.221Z,27.47
2022-11-20T16:16:20.496Z,24.30
2022-11-20T16:18:47.740Z,26.67
2022-11-20T16:21:16.227Z,27.53
2022-11-20T16:23:43.472Z,27.70
2022-11-20T16:26:11.879Z,39.07
2022-11-20T16:28:39.039Z,29.60
2022-11-20T16:31:16.607Z,27.00
2022-11-20T16:33:44.176Z,26.13
2022-11-20T16:36:12.260Z,28.83
2022-11-20T16:38:39.525Z,34.30
2022-11-20T16:41:14.133Z,30.40
2022-11-20T16:43:49.105Z,23.63
2022-11-20T16:46:22.002Z,25.77
2022-11-20T16:48:56.337Z,30.00
2022-11-20T16:51:24.218Z,24.90
2022-11-20T16:53:51.937Z,25.00
2022-11-20T16:56:19.999Z,27.43
2022-11-20T16:58:47.954Z,30.67
2022-11-20T17:01:16.619Z,22.23
2022-11-20T17:03:45.051Z,27.43
2022-11-20T17:06:19.712Z,21.90
2022-11-20T17:08:47.700Z,25.97
2022-11-20T17:11:17.892Z,26.10
2022-11-20T17:13:45.509Z,26.13
2022-11-20T17:16:15.692Z,31.50
2022-11-20T17:18:43.924Z,24.63
2022-11-20T17:21:12.765Z,31.73
2022-11-20T17:23:42.460Z,25.23
2022-11-20T17:26:17.741Z,25.97
2022-11-20T17:28:45.690Z,27.67
2022-11-20T17:31:15.601Z,26.47
2022-11-20T17:33:44.836Z,26.10
2022-11-20T17:36:13.279Z,27.43
2022-11-20T17:38:42.567Z,23.80
2022-11-20T17:41:13.799Z,24.40
2022-11-20T17:43:45.046Z,24.37
2022-11-20T17:46:18.164Z,26.90
2022-11-20T17:48:45.922Z,23.87
2022-11-20T17:51:14.107Z,30.37
2022-11-20T17:53:42.056Z,32.40
2022-11-20T17:56:28.177Z,23.23
2022-11-20T17:58:55.566Z,23.07
2022-11-20T18:01:23.739Z,24.33
2022-11-20T18:03:51.120Z,19.40
2022-11-20T18:06:22.646Z,27.53
2022-11-20T18:08:50.513Z,22.47
2022-11-20T18:11:17.683Z,28.10
2022-11-20T18:14:04.494Z,25.57
2022-11-20T18:16:33.187Z,28.10
2022-11-20T18:19:01.779Z,28.90
2022-11-20T18:21:29.928Z,29.77
2022-11-20T18:23:57.493Z,23.63
2022-11-20T18:26:25.255Z,25.37
2022-11-20T18:28:52.837Z,30.07
2022-11-20T18:31:20.658Z,23.67
2022-11-20T18:33:48.121Z,29.30
2022-11-20T18:36:18.473Z,24.50
2022-11-20T18:38:47.076Z,17.40
2022-11-20T18:41:34.333Z,17.87
2022-11-20T18:44:20.880Z,13.00
2022-11-20T18:46:48.641Z,15.53
2022-11-20T18:49:16.109Z,15.73
2022-11-20T18:51:44.379Z,10.30
2022-11-20T18:54:12.655Z,12.27
2022-11-20T18:56:40.112Z,10.47
2022-11-20T18:59:08.139Z,8.93
2022-11-20T19:01:35.445Z,9.17
2022-11-20T19:04:07.090Z,10.27
2022-11-20T19:06:35.471Z,10.33
2022-11-20T19:09:04.085Z,8.33
2022-11-20T19:11:31.326Z,8.93
2022-11-20T19:13:58.636Z,9.30
2022-11-20T19:16:26.877Z,7.83
2022-11-20T19:18:57.088Z,6.93
2022-11-20T19:21:24.978Z,6.70
2022-11-20T19:23:53.491Z,6.13
2022-11-20T19:26:21.569Z,6.90
2022-11-20T19:28:50.226Z,5.90
2022-11-20T19:31:24.296Z,7.30
2022-11-20T19:33:59.083Z,5.83
2022-11-20T19:36:28.878Z,6.07
2022-11-20T19:38:57.564Z,8.00
2022-11-20T19:41:28.815Z,6.53
2022-11-20T19:43:57.518Z,8.50
2022-11-20T19:46:25.342Z,7.90
2022-11-20T19:48:52.654Z,7.07
2022-11-20T19:51:21.210Z,6.40
2022-11-20T19:53:48.672Z,6.67
2022-11-20T19:56:15.967Z,7.13
2022-11-20T19:58:43.178Z,9.57
2022-11-20T20:01:14.507Z,9.63
2022-11-20T20:03:42.169Z,6.90
2022-11-20T20:06:10.689Z,8.20
2022-11-20T20:08:38.229Z,9.00
2022-11-20T20:11:12.811Z,6.80
2022-11-20T20:13:42.060Z,7.00
2022-11-20T20:16:10.826Z,7.63
2022-11-20T20:18:38.388Z,6.40
2022-11-20T20:21:06.444Z,7.33
2022-11-20T20:23:34.272Z,6.93
2022-11-20T20:26:01.718Z,12.10
2022-11-20T20:28:29.031Z,10.40
2022-11-20T20:30:56.297Z,6.13
2022-11-20T20:33:24.329Z,5.90
2022-11-20T20:35:51.484Z,7.47
2022-11-20T20:38:19.174Z,6.40
2022-11-20T20:40:48.679Z,11.70
2022-11-20T20:43:16.424Z,5.67
2022-11-20T20:45:47.826Z,5.30
2022-11-20T20:48:19.263Z,4.23
2022-11-20T20:51:08.440Z,4.53
2022-11-20T20:53:36.494Z,3.90
2022-11-20T20:56:04.121Z,4.67
2022-11-20T20:58:31.744Z,3.87
2022-11-20T21:01:07.153Z,3.43
2022-11-20T21:03:34.845Z,3.77
2022-11-20T21:06:02.381Z,3.60
2022-11-20T21:08:30.582Z,5.50
2022-11-20T21:11:03.023Z,4.93
2022-11-20T21:13:30.658Z,3.53
2022-11-20T21:15:58.337Z,4.33
2022-11-20T21:18:25.945Z,3.73
2022-11-20T21:21:12.262Z,5.60
2022-11-20T21:23:41.794Z,3.60
2022-11-20T21:26:09.710Z,3.87
2022-11-20T21:28:37.536Z,3.60
2022-11-20T21:31:09.774Z,4.53
2022-11-20T21:33:38.139Z,3.20
2022-11-20T21:36:05.696Z,3.80
2022-11-20T21:38:33.432Z,2.83
2022-11-20T21:41:01.161Z,3.20
2022-11-20T21:43:28.499Z,3.43
2022-11-20T21:46:00.844Z,3.20
2022-11-20T21:48:35.250Z,3.27
2022-11-20T21:51:06.803Z,2.93
2022-11-20T21:53:34.730Z,3.70
2022-11-20T21:56:04.044Z,2.50
2022-11-20T21:58:31.679Z,3.37
2022-11-20T22:00:58.998Z,2.50
2022-11-20T22:03:26.237Z,2.90
2022-11-20T22:05:54.860Z,3.10
2022-11-20T22:08:22.005Z,3.33
2022-11-20T22:11:02.669Z,3.97
2022-11-20T22:13:48.426Z,2.70
2022-11-20T22:16:15.703Z,5.43
2022-11-20T22:18:46.730Z,3.07
2022-11-20T22:21:14.291Z,3.70
2022-11-20T22:23:41.684Z,3.60
2022-11-20T22:26:10.410Z,3.53
2022-11-20T22:28:38.029Z,7.90
2022-11-20T22:31:06.255Z,5.63
2022-11-20T22:33:33.813Z,2.90
2022-11-20T22:36:02.106Z,3.17
2022-11-20T22:38:31.428Z,4.60
2022-11-20T22:41:07.604Z,3.40
2022-11-20T22:43:35.115Z,3.50
2022-11-20T22:46:07.120Z,7.07
2022-11-20T22:48:35.065Z,5.13
2022-11-20T22:51:09.461Z,7.93
2022-11-20T22:53:36.944Z,3.77
2022-11-20T22:56:06.580Z,3.13
2022-11-20T22:58:37.119Z,3.00
2022-11-20T23:01:11.623Z,3.10
2022-11-20T23:03:39.957Z,2.77
2022-11-20T23:06:08.973Z,4.33
2022-11-20T23:08:37.009Z,3.30
2022-11-20T23:11:08.402Z,4.63
2022-11-20T23:13:36.141Z,6.77
2022-11-20T23:16:08.514Z,4.70
2022-11-20T23:18:37.364Z,3.10
2022-11-20T23:21:12.476Z,4.13
2022-11-20T23:23:39.917Z,4.07
2022-11-20T23:26:11.824Z,3.43
2022-11-20T23:28:39.938Z,5.07
2022-11-20T23:31:07.858Z,4.67
2022-11-20T23:33:39.580Z,3.07
2022-11-20T23:36:07.243Z,6.57
2022-11-20T23:38:34.898Z,4.17
2022-11-20T23:41:02.796Z,3.53
2022-11-20T23:43:30.195Z,6.40
2022-11-20T23:45:58.340Z,6.63
2022-11-20T23:48:27.116Z,3.97
2022-11-20T23:50:55.292Z,6.50
2022-11-20T23:53:22.798Z,4.93
2022-11-20T23:55:51.171Z,5.27
2022-11-20T23:58:18.544Z,3.70
